PWSweather.com
Personal Weather Stations
Station Observations
BLACKWELL
Blackwell, AlfretonGB DE55

BlackwellAlfretonGB DE55

Lat: 53.12076, Lon: -1.354978

Elevation: 410

Station Type: Vantage Pro

High Low Average
Temperature 64.6°F18.1°F 43.9°F6.6°F 51.1°F10.6°F
Dew Point 56.8°F13.8°F 42.3°F5.7°F 47.4°F8.6°F
Winds 2.0 mph -3.2 mph - Calm Calm 0.5 mph 0.8 mph
Wind Gusts 9.0 mph14.5 mph -- 4.2 mph6.8 mph
Humidity 95% 75% 87%
Pressure 29.42 in996.30 in 29.23 in989.80 in -
Precipitation 0.04 in1.00 in - -
Hour Temp Dew Point Humidity Winds Wind Gusts Pressure Precip Precip Rate Daily Precip Total
12:32 AM 45.3°F7.4°C 43.5°F6.4°C 93% 1.0 mph N1.6 kmh N 7.0 mph11.3 kmh 29.39 in995.3 mb 0.00 in0.0 mm 0.00 in0.0 mm 0.00 in0.0 mm
01:32 AM 44.4°F6.9°C 42.4°F5.8°C 93% 1.0 mph N1.6 kmh N 8.0 mph12.9 kmh 29.37 in994.6 mb 0.00 in0.0 mm 0.00 in0.0 mm 0.00 in0.0 mm
02:32 AM 43.9°F6.6°C 42.3°F5.7°C 94% 1.0 mph N1.6 kmh N 7.0 mph11.3 kmh 29.36 in994.2 mb 0.00 in0.0 mm 0.00 in0.0 mm 0.00 in0.0 mm
03:32 AM 43.9°F6.6°C 42.3°F5.7°C 94% 1.0 mph N1.6 kmh N 6.0 mph9.7 kmh 29.34 in993.6 mb 0.00 in0.0 mm 0.00 in0.0 mm 0.00 in0.0 mm
04:32 AM 43.9°F6.6°C 42.3°F5.7°C 94% 1.0 mph N1.6 kmh N 9.0 mph14.5 kmh 29.33 in993.2 mb 0.00 in0.0 mm 0.00 in0.0 mm 0.00 in0.0 mm
05:32 AM 44.4°F6.9°C 43.0°F6.1°C 95% Calm Calm 6.0 mph9.7 kmh 29.33 in993.2 mb 0.00 in0.0 mm 0.00 in0.0 mm 0.00 in0.0 mm
06:32 AM 45.3°F7.4°C 44.1°F6.7°C 95% 1.0 mph N1.6 kmh N 4.0 mph6.4 kmh 29.32 in992.9 mb 0.00 in0.0 mm 0.00 in0.0 mm 0.00 in0.0 mm
07:32 AM 46.6°F8.1°C 45.3°F7.4°C 95% Calm Calm 3.0 mph4.8 kmh 29.32 in992.9 mb 0.00 in0.0 mm 0.00 in0.0 mm 0.00 in0.0 mm
08:32 AM 49.1°F9.5°C 47.5°F8.6°C 94% 1.0 mph N1.6 kmh N 5.0 mph8.0 kmh 29.31 in992.6 mb 0.00 in0.0 mm 0.00 in0.0 mm 0.00 in0.0 mm
09:34 AM 52.9°F11.6°C 49.5°F9.7°C 88% Calm Calm 1.0 mph1.6 kmh 29.31 in992.6 mb 0.00 in0.0 mm 0.00 in0.0 mm 0.00 in0.0 mm
10:32 AM 57.0°F13.9°C 51.6°F10.9°C 82% Calm Calm 3.0 mph4.8 kmh 29.30 in992.2 mb 0.00 in0.0 mm 0.00 in0.0 mm 0.00 in0.0 mm
11:32 AM 59.5°F15.3°C 52.7°F11.5°C 78% Calm Calm 1.0 mph1.6 kmh 29.29 in991.9 mb 0.00 in0.0 mm 0.00 in0.0 mm 0.00 in0.0 mm
12:32 PM 59.4°F15.2°C 53.4°F11.9°C 81% Calm Calm 1.0 mph1.6 kmh 29.28 in991.5 mb 0.00 in0.0 mm 0.00 in0.0 mm 0.00 in0.0 mm
01:32 PM 62.6°F17.0°C 54.5°F12.5°C 75% Calm Calm 1.0 mph1.6 kmh 29.26 in990.9 mb 0.00 in0.0 mm 0.00 in0.0 mm 0.00 in0.0 mm
02:32 PM 64.6°F18.1°C 56.8°F13.8°C 76% Calm Calm 2.0 mph3.2 kmh 29.23 in989.8 mb 0.01 in0.3 mm 0.00 in0.0 mm 0.01 in0.3 mm
03:32 PM 61.3°F16.3°C 55.6°F13.1°C 81% 1.0 mph ENE1.6 kmh ENE 4.0 mph6.4 kmh 29.23 in989.8 mb 0.02 in0.5 mm 0.00 in0.0 mm 0.03 in0.8 mm
04:32 PM 56.1°F13.4°C 52.3°F11.3°C 87% 2.0 mph SSW3.2 kmh SSW 8.0 mph12.9 kmh 29.27 in991.2 mb 0.01 in0.3 mm 0.00 in0.0 mm 0.04 in1.0 mm
05:32 PM 55.0°F12.8°C 49.5°F9.7°C 81% 1.0 mph S1.6 kmh S 7.0 mph11.3 kmh 29.30 in992.2 mb 0.00 in0.0 mm 0.00 in0.0 mm 0.04 in1.0 mm
06:32 PM 52.5°F11.4°C 48.7°F9.3°C 87% 1.0 mph S1.6 kmh S 7.0 mph11.3 kmh 29.34 in993.6 mb 0.00 in0.0 mm 0.00 in0.0 mm 0.04 in1.0 mm
07:32 PM 51.4°F10.8°C 45.7°F7.6°C 81% Calm Calm 5.0 mph8.0 kmh 29.37 in994.6 mb 0.00 in0.0 mm 0.00 in0.0 mm 0.04 in1.0 mm
08:32 PM 48.9°F9.4°C 43.9°F6.6°C 83% Calm Calm 4.0 mph6.4 kmh 29.39 in995.3 mb 0.00 in0.0 mm 0.00 in0.0 mm 0.04 in1.0 mm
09:32 PM 46.2°F7.9°C 43.2°F6.2°C 89% Calm Calm -- 29.40 in995.6 mb 0.00 in0.0 mm 0.00 in0.0 mm 0.04 in1.0 mm
10:32 PM 46.6°F8.1°C 43.7°F6.5°C 90% Calm Calm 1.0 mph1.6 kmh 29.41 in995.9 mb 0.00 in0.0 mm 0.00 in0.0 mm 0.04 in1.0 mm
11:32 PM 45.0°F7.2°C 42.6°F5.9°C 91% Calm Calm -- 29.42 in996.3 mb 0.00 in0.0 mm 0.00 in0.0 mm 0.02 in0.5 mm